Terminal Aerodrome Forecast
Issued by NWS Sterling, VA

Current Version | Previous Version | Text Only | Print | Product List | Glossary Off
Versions: 1 2 3 4 5 6 7 8 9 10 11 12 13 14 15 16 17 18 19 20 21 22 23 24 25 26 27 28

000
FTUS41 KLWX 231500 AAA
TAFIAD
TAF AMD
KIAD 231501Z 2315/2418 21007KT P6SM FEW040 SCT100
     FM232000 22008KT P6SM VCTS SCT040CB BKN080
     FM240000 24005KT P6SM BKN060
     FM240200 31004KT P6SM BKN070
     FM241200 34008KT P6SM OVC070=

USA.gov is the U.S. government's official web portal to all federal, state and local government web resources and services.